sensor_id;sensor_type;location;lat;lon;timestamp;pressure;altitude;pressure_sealevel;temperature;humidity
37848;BME280;23688;33.130;-117.188;2023-05-22T00:01:50;99421.53;;;16.77;100.00
37848;BME280;23688;33.130;-117.188;2023-05-22T00:04:16;99426.25;;;16.99;100.00
37848;BME280;23688;33.130;-117.188;2023-05-22T00:06:46;99418.41;;;16.99;100.00
37848;BME280;23688;33.130;-117.188;2023-05-22T00:09:13;99421.91;;;16.98;100.00
37848;BME280;23688;33.130;-117.188;2023-05-22T00:11:40;99420.88;;;16.88;100.00
37848;BME280;23688;33.130;-117.188;2023-05-22T00:14:06;99417.56;;;17.00;100.00
37848;BME280;23688;33.130;-117.188;2023-05-22T00:16:32;99419.84;;;16.79;100.00
37848;BME280;23688;33.130;-117.188;2023-05-22T00:18:58;99427.91;;;16.38;100.00
37848;BME280;23688;33.130;-117.188;2023-05-22T00:21:26;99420.84;;;16.34;100.00
37848;BME280;23688;33.130;-117.188;2023-05-22T00:23:52;99424.25;;;16.26;100.00
37848;BME280;23688;33.130;-117.188;2023-05-22T00:26:19;99405.06;;;16.29;100.00
37848;BME280;23688;33.130;-117.188;2023-05-22T00:28:48;99426.41;;;16.52;100.00
37848;BME280;23688;33.130;-117.188;2023-05-22T00:31:14;99420.72;;;16.24;100.00
37848;BME280;23688;33.130;-117.188;2023-05-22T00:33:41;99430.09;;;16.13;100.00
37848;BME280;23688;33.130;-117.188;2023-05-22T00:36:07;99423.16;;;16.15;100.00
37848;BME280;23688;33.130;-117.188;2023-05-22T00:38:34;99421.38;;;16.13;100.00
37848;BME280;23688;33.130;-117.188;2023-05-22T00:41:03;99426.56;;;16.11;100.00
37848;BME280;23688;33.130;-117.188;2023-05-22T00:43:33;99411.69;;;16.09;100.00
37848;BME280;23688;33.130;-117.188;2023-05-22T00:45:59;99426.41;;;16.02;100.00
37848;BME280;23688;33.130;-117.188;2023-05-22T00:48:26;99432.69;;;16.12;100.00
37848;BME280;23688;33.130;-117.188;2023-05-22T00:50:54;99432.97;;;16.29;100.00
37848;BME280;23688;33.130;-117.188;2023-05-22T00:53:21;99430.44;;;16.33;100.00
37848;BME280;23688;33.130;-117.188;2023-05-22T00:55:50;99436.38;;;16.23;100.00
37848;BME280;23688;33.130;-117.188;2023-05-22T00:58:19;99430.78;;;16.03;100.00
37848;BME280;23688;33.130;-117.188;2023-05-22T01:00:46;99434.09;;;15.93;100.00
37848;BME280;23688;33.130;-117.188;2023-05-22T01:03:13;99434.84;;;15.86;100.00
37848;BME280;23688;33.130;-117.188;2023-05-22T01:05:40;99439.09;;;15.80;100.00
37848;BME280;23688;33.130;-117.188;2023-05-22T01:08:07;99424.28;;;15.81;100.00
37848;BME280;23688;33.130;-117.188;2023-05-22T01:10:35;99429.91;;;16.02;100.00
37848;BME280;23688;33.130;-117.188;2023-05-22T01:15:46;99431.63;;;16.00;100.00
37848;BME280;23688;33.130;-117.188;2023-05-22T01:21:51;99436.50;;;15.82;100.00
37848;BME280;23688;33.130;-117.188;2023-05-22T01:24:59;99440.81;;;15.80;100.00
37848;BME280;23688;33.130;-117.188;2023-05-22T01:32:47;99425.19;;;15.83;100.00
37848;BME280;23688;33.130;-117.188;2023-05-22T01:35:16;99428.75;;;15.87;100.00
37848;BME280;23688;33.130;-117.188;2023-05-22T01:37:45;99419.28;;;15.93;100.00
37848;BME280;23688;33.130;-117.188;2023-05-22T01:40:13;99432.91;;;15.77;100.00
37848;BME280;23688;33.130;-117.188;2023-05-22T01:42:39;99434.63;;;15.75;100.00
37848;BME280;23688;33.130;-117.188;2023-05-22T01:45:10;99434.28;;;15.59;100.00
37848;BME280;23688;33.130;-117.188;2023-05-22T01:47:37;99432.63;;;15.63;100.00
37848;BME280;23688;33.130;-117.188;2023-05-22T01:50:04;99433.06;;;15.84;100.00
37848;BME280;23688;33.130;-117.188;2023-05-22T01:53:00;99439.00;;;15.76;100.00
37848;BME280;23688;33.130;-117.188;2023-05-22T01:55:37;99439.66;;;15.66;100.00
37848;BME280;23688;33.130;-117.188;2023-05-22T02:01:11;99436.84;;;15.58;100.00
37848;BME280;23688;33.130;-117.188;2023-05-22T02:03:39;99445.06;;;15.73;100.00
37848;BME280;23688;33.130;-117.188;2023-05-22T02:06:09;99430.53;;;15.47;100.00
37848;BME280;23688;33.130;-117.188;2023-05-22T02:08:39;99434.91;;;15.48;100.00
37848;BME280;23688;33.130;-117.188;2023-05-22T02:11:07;99432.44;;;15.55;100.00
37848;BME280;23688;33.130;-117.188;2023-05-22T02:13:35;99438.75;;;15.65;100.00
37848;BME280;23688;33.130;-117.188;2023-05-22T02:16:03;99427.78;;;15.39;100.00
37848;BME280;23688;33.130;-117.188;2023-05-22T02:18:30;99442.66;;;15.41;100.00
37848;BME280;23688;33.130;-117.188;2023-05-22T02:20:57;99448.59;;;15.34;100.00
37848;BME280;23688;33.130;-117.188;2023-05-22T02:23:24;99443.16;;;15.25;100.00
37848;BME280;23688;33.130;-117.188;2023-05-22T02:25:51;99450.25;;;15.29;100.00
37848;BME280;23688;33.130;-117.188;2023-05-22T02:28:21;99453.94;;;15.40;100.00
37848;BME280;23688;33.130;-117.188;2023-05-22T02:30:47;99445.91;;;15.31;100.00
37848;BME280;23688;33.130;-117.188;2023-05-22T02:33:14;99450.97;;;15.22;100.00
37848;BME280;23688;33.130;-117.188;2023-05-22T02:35:43;99439.09;;;14.98;100.00
37848;BME280;23688;33.130;-117.188;2023-05-22T02:38:10;99438.09;;;14.93;100.00
37848;BME280;23688;33.130;-117.188;2023-05-22T02:40:36;99441.00;;;15.06;100.00
37848;BME280;23688;33.130;-117.188;2023-05-22T02:43:03;99436.69;;;15.08;100.00
37848;BME280;23688;33.130;-117.188;2023-05-22T02:45:31;99436.66;;;15.06;100.00
37848;BME280;23688;33.130;-117.188;2023-05-22T02:47:58;99440.34;;;15.16;100.00
37848;BME280;23688;33.130;-117.188;2023-05-22T02:50:26;99434.41;;;15.23;100.00
37848;BME280;23688;33.130;-117.188;2023-05-22T02:52:52;99445.38;;;15.07;100.00
37848;BME280;23688;33.130;-117.188;2023-05-22T02:55:19;99440.50;;;15.24;100.00
37848;BME280;23688;33.130;-117.188;2023-05-22T02:57:46;99448.97;;;15.53;100.00
37848;BME280;23688;33.130;-117.188;2023-05-22T03:00:12;99452.50;;;15.53;100.00
37848;BME280;23688;33.130;-117.188;2023-05-22T03:02:39;99458.00;;;15.67;100.00
37848;BME280;23688;33.130;-117.188;2023-05-22T03:05:06;99466.84;;;15.72;100.00
37848;BME280;23688;33.130;-117.188;2023-05-22T03:07:32;99469.72;;;15.84;100.00
37848;BME280;23688;33.130;-117.188;2023-05-22T03:09:59;99472.31;;;15.84;100.00
37848;BME280;23688;33.130;-117.188;2023-05-22T03:12:25;99471.53;;;15.46;100.00
37848;BME280;23688;33.130;-117.188;2023-05-22T03:14:52;99475.47;;;15.68;100.00
37848;BME280;23688;33.130;-117.188;2023-05-22T03:17:18;99478.97;;;15.69;100.00
37848;BME280;23688;33.130;-117.188;2023-05-22T03:19:44;99462.88;;;15.49;100.00
37848;BME280;23688;33.130;-117.188;2023-05-22T03:22:11;99484.53;;;15.43;100.00
37848;BME280;23688;33.130;-117.188;2023-05-22T03:24:37;99489.41;;;15.67;100.00
37848;BME280;23688;33.130;-117.188;2023-05-22T03:27:04;99486.97;;;15.75;100.00
37848;BME280;23688;33.130;-117.188;2023-05-22T03:29:30;99493.28;;;15.84;100.00
37848;BME280;23688;33.130;-117.188;2023-05-22T03:32:00;99487.66;;;15.68;100.00
37848;BME280;23688;33.130;-117.188;2023-05-22T03:34:28;99490.44;;;15.74;100.00
37848;BME280;23688;33.130;-117.188;2023-05-22T03:36:55;99499.03;;;15.68;100.00
37848;BME280;23688;33.130;-117.188;2023-05-22T03:39:22;99489.69;;;15.40;100.00
37848;BME280;23688;33.130;-117.188;2023-05-22T03:41:49;99479.00;;;15.29;100.00
37848;BME280;23688;33.130;-117.188;2023-05-22T03:44:15;99494.72;;;15.31;100.00
37848;BME280;23688;33.130;-117.188;2023-05-22T03:46:41;99487.53;;;15.20;100.00
37848;BME280;23688;33.130;-117.188;2023-05-22T03:49:08;99491.44;;;15.41;100.00
37848;BME280;23688;33.130;-117.188;2023-05-22T03:51:34;99504.56;;;15.43;100.00
37848;BME280;23688;33.130;-117.188;2023-05-22T03:54:00;99509.47;;;15.27;100.00
37848;BME280;23688;33.130;-117.188;2023-05-22T03:56:27;99513.56;;;15.16;100.00
37848;BME280;23688;33.130;-117.188;2023-05-22T03:58:53;99515.97;;;15.07;100.00
37848;BME280;23688;33.130;-117.188;2023-05-22T04:01:19;99510.59;;;15.01;100.00
37848;BME280;23688;33.130;-117.188;2023-05-22T04:03:45;99511.75;;;15.13;100.00
37848;BME280;23688;33.130;-117.188;2023-05-22T04:06:12;99516.44;;;15.27;100.00
37848;BME280;23688;33.130;-117.188;2023-05-22T04:08:39;99516.28;;;15.20;100.00
37848;BME280;23688;33.130;-117.188;2023-05-22T04:11:05;99516.47;;;15.28;100.00
37848;BME280;23688;33.130;-117.188;2023-05-22T04:13:32;99529.59;;;15.30;100.00
37848;BME280;23688;33.130;-117.188;2023-05-22T04:15:59;99526.75;;;15.20;100.00
37848;BME280;23688;33.130;-117.188;2023-05-22T04:18:26;99532.50;;;15.06;100.00
37848;BME280;23688;33.130;-117.188;2023-05-22T04:20:53;99519.56;;;15.10;100.00
37848;BME280;23688;33.130;-117.188;2023-05-22T04:23:19;99535.38;;;15.16;100.00
37848;BME280;23688;33.130;-117.188;2023-05-22T04:25:46;99530.84;;;15.09;100.00
37848;BME280;23688;33.130;-117.188;2023-05-22T04:28:13;99536.13;;;15.11;100.00
37848;BME280;23688;33.130;-117.188;2023-05-22T04:30:43;99524.38;;;14.93;100.00
37848;BME280;23688;33.130;-117.188;2023-05-22T04:33:09;99521.50;;;14.83;100.00
37848;BME280;23688;33.130;-117.188;2023-05-22T04:35:35;99537.16;;;14.81;100.00
37848;BME280;23688;33.130;-117.188;2023-05-22T04:38:02;99531.91;;;14.81;100.00
37848;BME280;23688;33.130;-117.188;2023-05-22T04:40:28;99527.50;;;14.80;100.00
37848;BME280;23688;33.130;-117.188;2023-05-22T04:42:59;99555.09;;;15.02;100.00
37848;BME280;23688;33.130;-117.188;2023-05-22T04:45:26;99545.53;;;15.04;100.00
37848;BME280;23688;33.130;-117.188;2023-05-22T04:47:53;99549.06;;;15.05;100.00
37848;BME280;23688;33.130;-117.188;2023-05-22T04:50:20;99551.03;;;15.15;100.00
37848;BME280;23688;33.130;-117.188;2023-05-22T04:52:47;99548.38;;;15.13;100.00
37848;BME280;23688;33.130;-117.188;2023-05-22T04:55:16;99551.16;;;15.21;100.00
37848;BME280;23688;33.130;-117.188;2023-05-22T04:57:45;99546.97;;;15.28;100.00
37848;BME280;23688;33.130;-117.188;2023-05-22T05:00:12;99543.72;;;15.38;100.00
37848;BME280;23688;33.130;-117.188;2023-05-22T05:02:40;99535.16;;;15.44;100.00
37848;BME280;23688;33.130;-117.188;2023-05-22T05:05:07;99528.00;;;15.36;100.00
37848;BME280;23688;33.130;-117.188;2023-05-22T05:07:36;99520.22;;;15.39;100.00
37848;BME280;23688;33.130;-117.188;2023-05-22T05:10:03;99526.44;;;15.45;100.00
37848;BME280;23688;33.130;-117.188;2023-05-22T05:12:30;99531.78;;;15.49;100.00
37848;BME280;23688;33.130;-117.188;2023-05-22T05:14:56;99531.63;;;15.43;100.00
37848;BME280;23688;33.130;-117.188;2023-05-22T05:17:22;99532.66;;;15.50;100.00
37848;BME280;23688;33.130;-117.188;2023-05-22T05:19:49;99533.41;;;15.44;100.00
37848;BME280;23688;33.130;-117.188;2023-05-22T05:22:15;99530.53;;;15.33;100.00
37848;BME280;23688;33.130;-117.188;2023-05-22T05:24:41;99525.28;;;15.33;100.00
37848;BME280;23688;33.130;-117.188;2023-05-22T05:27:08;99531.22;;;15.25;100.00
37848;BME280;23688;33.130;-117.188;2023-05-22T05:29:34;99542.19;;;15.46;100.00
37848;BME280;23688;33.130;-117.188;2023-05-22T05:32:01;99547.69;;;15.58;100.00
37848;BME280;23688;33.130;-117.188;2023-05-22T05:34:28;99530.25;;;15.60;100.00
37848;BME280;23688;33.130;-117.188;2023-05-22T05:36:54;99532.97;;;15.63;100.00
37848;BME280;23688;33.130;-117.188;2023-05-22T05:39:22;99535.22;;;15.48;100.00
37848;BME280;23688;33.130;-117.188;2023-05-22T05:41:48;99534.22;;;15.41;100.00
37848;BME280;23688;33.130;-117.188;2023-05-22T05:44:15;99528.28;;;15.50;100.00
37848;BME280;23688;33.130;-117.188;2023-05-22T05:46:41;99535.47;;;15.59;100.00
37848;BME280;23688;33.130;-117.188;2023-05-22T05:49:08;99533.56;;;15.52;100.00
37848;BME280;23688;33.130;-117.188;2023-05-22T05:51:36;99527.47;;;15.53;100.00
37848;BME280;23688;33.130;-117.188;2023-05-22T05:54:03;99532.09;;;15.65;100.00
37848;BME280;23688;33.130;-117.188;2023-05-22T05:56:30;99537.22;;;15.60;100.00
37848;BME280;23688;33.130;-117.188;2023-05-22T05:58:56;99536.31;;;15.58;100.00
37848;BME280;23688;33.130;-117.188;2023-05-22T06:01:24;99533.78;;;15.62;100.00
37848;BME280;23688;33.130;-117.188;2023-05-22T06:03:51;99532.97;;;15.63;100.00
37848;BME280;23688;33.130;-117.188;2023-05-22T06:06:17;99535.56;;;15.63;100.00
37848;BME280;23688;33.130;-117.188;2023-05-22T06:08:44;99533.88;;;15.67;100.00
37848;BME280;23688;33.130;-117.188;2023-05-22T06:11:10;99532.00;;;15.60;100.00
37848;BME280;23688;33.130;-117.188;2023-05-22T06:13:36;99531.16;;;15.61;100.00
37848;BME280;23688;33.130;-117.188;2023-05-22T06:16:03;99519.63;;;15.53;100.00
37848;BME280;23688;33.130;-117.188;2023-05-22T06:18:29;99524.53;;;15.37;100.00
37848;BME280;23688;33.130;-117.188;2023-05-22T06:20:56;99521.09;;;15.40;100.00
37848;BME280;23688;33.130;-117.188;2023-05-22T06:23:26;99516.81;;;15.44;100.00
37848;BME280;23688;33.130;-117.188;2023-05-22T06:25:52;99514.44;;;15.54;100.00
37848;BME280;23688;33.130;-117.188;2023-05-22T06:28:19;99511.97;;;15.62;100.00
37848;BME280;23688;33.130;-117.188;2023-05-22T06:30:45;99514.75;;;15.68;100.00
37848;BME280;23688;33.130;-117.188;2023-05-22T06:33:11;99513.19;;;15.76;100.00
37848;BME280;23688;33.130;-117.188;2023-05-22T06:35:39;99501.66;;;15.68;100.00
37848;BME280;23688;33.130;-117.188;2023-05-22T06:38:05;99511.16;;;15.65;100.00
37848;BME280;23688;33.130;-117.188;2023-05-22T06:40:32;99498.78;;;15.57;100.00
37848;BME280;23688;33.130;-117.188;2023-05-22T06:42:58;99497.91;;;15.57;100.00
37848;BME280;23688;33.130;-117.188;2023-05-22T06:45:24;99520.06;;;15.71;100.00
37848;BME280;23688;33.130;-117.188;2023-05-22T06:47:53;99507.03;;;15.74;100.00
37848;BME280;23688;33.130;-117.188;2023-05-22T06:50:20;99516.50;;;15.69;100.00
37848;BME280;23688;33.130;-117.188;2023-05-22T06:52:47;99500.38;;;15.51;100.00
37848;BME280;23688;33.130;-117.188;2023-05-22T06:55:14;99514.09;;;15.39;100.00
37848;BME280;23688;33.130;-117.188;2023-05-22T06:57:41;99505.34;;;15.38;100.00
37848;BME280;23688;33.130;-117.188;2023-05-22T07:00:07;99503.56;;;15.36;100.00
37848;BME280;23688;33.130;-117.188;2023-05-22T07:02:36;99497.50;;;15.37;100.00
37848;BME280;23688;33.130;-117.188;2023-05-22T07:05:03;99496.00;;;15.50;100.00
37848;BME280;23688;33.130;-117.188;2023-05-22T07:07:30;99505.91;;;15.65;100.00
37848;BME280;23688;33.130;-117.188;2023-05-22T07:09:56;99497.03;;;15.58;100.00
37848;BME280;23688;33.130;-117.188;2023-05-22T07:12:22;99484.78;;;15.55;100.00
37848;BME280;23688;33.130;-117.188;2023-05-22T07:14:51;99484.06;;;15.61;100.00
37848;BME280;23688;33.130;-117.188;2023-05-22T07:17:18;99474.56;;;15.66;100.00
37848;BME280;23688;33.130;-117.188;2023-05-22T07:19:47;99474.69;;;15.71;100.00
37848;BME280;23688;33.130;-117.188;2023-05-22T07:22:14;99473.00;;;15.73;100.00
37848;BME280;23688;33.130;-117.188;2023-05-22T07:24:40;99469.50;;;15.74;100.00
37848;BME280;23688;33.130;-117.188;2023-05-22T07:27:06;99471.84;;;15.61;100.00
37848;BME280;23688;33.130;-117.188;2023-05-22T07:29:34;99466.66;;;15.63;100.00
37848;BME280;23688;33.130;-117.188;2023-05-22T07:32:01;99464.75;;;15.56;100.00
37848;BME280;23688;33.130;-117.188;2023-05-22T07:34:27;99463.59;;;15.43;100.00
37848;BME280;23688;33.130;-117.188;2023-05-22T07:36:58;99453.06;;;15.40;100.00
37848;BME280;23688;33.130;-117.188;2023-05-22T07:39:26;99473.31;;;15.49;100.00
37848;BME280;23688;33.130;-117.188;2023-05-22T07:41:53;99476.97;;;15.57;100.00
37848;BME280;23688;33.130;-117.188;2023-05-22T07:44:21;99460.34;;;15.53;100.00
37848;BME280;23688;33.130;-117.188;2023-05-22T07:46:47;99462.78;;;15.46;100.00
37848;BME280;23688;33.130;-117.188;2023-05-22T07:49:13;99461.13;;;15.49;100.00
37848;BME280;23688;33.130;-117.188;2023-05-22T07:51:44;99453.13;;;15.43;100.00
37848;BME280;23688;33.130;-117.188;2023-05-22T07:54:11;99452.19;;;15.39;100.00
37848;BME280;23688;33.130;-117.188;2023-05-22T07:56:41;99453.28;;;15.49;100.00
37848;BME280;23688;33.130;-117.188;2023-05-22T07:59:08;99459.09;;;15.36;100.00
37848;BME280;23688;33.130;-117.188;2023-05-22T08:01:37;99460.53;;;15.22;100.00
37848;BME280;23688;33.130;-117.188;2023-05-22T08:04:04;99453.31;;;15.10;100.00
37848;BME280;23688;33.130;-117.188;2023-05-22T08:06:31;99453.25;;;15.08;100.00
37848;BME280;23688;33.130;-117.188;2023-05-22T08:08:57;99447.91;;;15.04;100.00
37848;BME280;23688;33.130;-117.188;2023-05-22T08:11:27;99450.56;;;15.05;100.00
37848;BME280;23688;33.130;-117.188;2023-05-22T08:13:53;99445.56;;;15.14;100.00
37848;BME280;23688;33.130;-117.188;2023-05-22T08:16:21;99450.25;;;15.29;100.00
37848;BME280;23688;33.130;-117.188;2023-05-22T08:18:48;99435.81;;;15.07;100.00
37848;BME280;23688;33.130;-117.188;2023-05-22T08:21:15;99443.66;;;15.09;100.00
37848;BME280;23688;33.130;-117.188;2023-05-22T08:23:41;99439.31;;;15.08;100.00
37848;BME280;23688;33.130;-117.188;2023-05-22T08:26:07;99432.66;;;15.22;100.00
37848;BME280;23688;33.130;-117.188;2023-05-22T08:28:34;99436.34;;;15.33;100.00
37848;BME280;23688;33.130;-117.188;2023-05-22T08:31:01;99432.19;;;15.41;100.00
37848;BME280;23688;33.130;-117.188;2023-05-22T08:33:27;99422.66;;;15.44;100.00
37848;BME280;23688;33.130;-117.188;2023-05-22T08:35:55;99422.34;;;15.31;100.00
37848;BME280;23688;33.130;-117.188;2023-05-22T08:38:22;99430.97;;;15.24;100.00
37848;BME280;23688;33.130;-117.188;2023-05-22T08:40:48;99425.88;;;15.32;100.00
37848;BME280;23688;33.130;-117.188;2023-05-22T08:43:15;99418.03;;;15.32;100.00
37848;BME280;23688;33.130;-117.188;2023-05-22T08:45:42;99419.69;;;15.27;100.00
37848;BME280;23688;33.130;-117.188;2023-05-22T08:48:12;99411.09;;;15.34;100.00
37848;BME280;23688;33.130;-117.188;2023-05-22T08:50:42;99409.56;;;15.44;100.00
37848;BME280;23688;33.130;-117.188;2023-05-22T08:53:11;99418.94;;;15.34;100.00
37848;BME280;23688;33.130;-117.188;2023-05-22T08:55:40;99412.59;;;15.23;100.00
37848;BME280;23688;33.130;-117.188;2023-05-22T08:58:07;99410.28;;;15.38;100.00
37848;BME280;23688;33.130;-117.188;2023-05-22T09:00:36;99409.72;;;15.51;100.00
37848;BME280;23688;33.130;-117.188;2023-05-22T09:03:03;99410.69;;;15.58;100.00
37848;BME280;23688;33.130;-117.188;2023-05-22T09:05:31;99411.69;;;15.63;100.00
37848;BME280;23688;33.130;-117.188;2023-05-22T09:07:58;99410.69;;;15.58;100.00
37848;BME280;23688;33.130;-117.188;2023-05-22T09:10:26;99406.38;;;15.60;100.00
37848;BME280;23688;33.130;-117.188;2023-05-22T09:13:08;99410.78;;;15.62;100.00
37848;BME280;23688;33.130;-117.188;2023-05-22T09:15:36;99413.34;;;15.59;100.00
37848;BME280;23688;33.130;-117.188;2023-05-22T09:18:05;99413.31;;;15.58;100.00
37848;BME280;23688;33.130;-117.188;2023-05-22T09:20:37;99397.69;;;15.61;100.00
37848;BME280;23688;33.130;-117.188;2023-05-22T09:23:13;99399.66;;;15.71;100.00
37848;BME280;23688;33.130;-117.188;2023-05-22T09:25:42;99401.53;;;15.78;100.00
37848;BME280;23688;33.130;-117.188;2023-05-22T09:28:10;99389.25;;;15.74;100.00
37848;BME280;23688;33.130;-117.188;2023-05-22T09:30:36;99386.63;;;15.74;100.00
37848;BME280;23688;33.130;-117.188;2023-05-22T09:33:03;99377.84;;;15.72;100.00
37848;BME280;23688;33.130;-117.188;2023-05-22T09:35:34;99388.47;;;15.78;100.00
37848;BME280;23688;33.130;-117.188;2023-05-22T09:38:02;99390.19;;;15.78;100.00
37848;BME280;23688;33.130;-117.188;2023-05-22T09:40:29;99377.94;;;15.75;100.00
37848;BME280;23688;33.130;-117.188;2023-05-22T09:43:00;99390.22;;;15.79;100.00
37848;BME280;23688;33.130;-117.188;2023-05-22T09:45:26;99392.88;;;15.82;100.00
37848;BME280;23688;33.130;-117.188;2023-05-22T09:47:52;99377.19;;;15.84;100.00
37848;BME280;23688;33.130;-117.188;2023-05-22T09:50:19;99372.09;;;15.90;100.00
37848;BME280;23688;33.130;-117.188;2023-05-22T09:52:46;99369.31;;;15.82;100.00
37848;BME280;23688;33.130;-117.188;2023-05-22T09:55:15;99385.09;;;15.86;100.00
37848;BME280;23688;33.130;-117.188;2023-05-22T09:57:44;99380.75;;;15.86;100.00
37848;BME280;23688;33.130;-117.188;2023-05-22T10:00:12;99372.09;;;15.90;100.00
37848;BME280;23688;33.130;-117.188;2023-05-22T10:02:44;99354.50;;;15.83;100.00
37848;BME280;23688;33.130;-117.188;2023-05-22T10:05:12;99359.75;;;15.84;100.00
37848;BME280;23688;33.130;-117.188;2023-05-22T10:08:03;99360.94;;;15.55;100.00
37848;BME280;23688;33.130;-117.188;2023-05-22T10:10:32;99369.59;;;15.52;100.00
37848;BME280;23688;33.130;-117.188;2023-05-22T10:13:02;99364.50;;;15.60;100.00
37848;BME280;23688;33.130;-117.188;2023-05-22T10:15:29;99375.28;;;15.74;100.00
37848;BME280;23688;33.130;-117.188;2023-05-22T10:17:57;99372.69;;;15.75;100.00
37848;BME280;23688;33.130;-117.188;2023-05-22T10:20:28;99363.16;;;15.79;100.00
37848;BME280;23688;33.130;-117.188;2023-05-22T10:22:55;99375.50;;;15.86;100.00
37848;BME280;23688;33.130;-117.188;2023-05-22T10:25:22;99361.66;;;15.93;100.00
37848;BME280;23688;33.130;-117.188;2023-05-22T10:27:51;99364.38;;;15.98;100.00
37848;BME280;23688;33.130;-117.188;2023-05-22T10:33:12;99351.91;;;15.84;100.00
37848;BME280;23688;33.130;-117.188;2023-05-22T10:35:50;99362.44;;;15.88;100.00
37848;BME280;23688;33.130;-117.188;2023-05-22T10:40:56;99350.84;;;15.75;100.00
37848;BME280;23688;33.130;-117.188;2023-05-22T10:43:23;99357.13;;;15.83;100.00
37848;BME280;23688;33.130;-117.188;2023-05-22T10:46:03;99351.91;;;15.83;100.00
37848;BME280;23688;33.130;-117.188;2023-05-22T10:48:38;99344.88;;;15.80;100.00
37848;BME280;23688;33.130;-117.188;2023-05-22T10:51:06;99339.56;;;15.77;100.00
37848;BME280;23688;33.130;-117.188;2023-05-22T10:53:34;99343.22;;;15.86;100.00
37848;BME280;23688;33.130;-117.188;2023-05-22T10:56:11;99346.56;;;15.78;100.00
37848;BME280;23688;33.130;-117.188;2023-05-22T10:58:39;99332.53;;;15.73;100.00
37848;BME280;23688;33.130;-117.188;2023-05-22T11:01:17;99337.75;;;15.75;100.00
37848;BME280;23688;33.130;-117.188;2023-05-22T11:06:39;99335.97;;;15.72;100.00
37848;BME280;23688;33.130;-117.188;2023-05-22T11:09:32;99322.88;;;15.71;100.00
37848;BME280;23688;33.130;-117.188;2023-05-22T11:12:23;99345.81;;;15.86;100.00
37848;BME280;23688;33.130;-117.188;2023-05-22T11:14:54;99337.97;;;15.86;100.00
37848;BME280;23688;33.130;-117.188;2023-05-22T11:17:26;99339.75;;;15.88;100.00
37848;BME280;23688;33.130;-117.188;2023-05-22T11:22:56;99343.25;;;15.89;100.00
37848;BME280;23688;33.130;-117.188;2023-05-22T11:25:24;99334.34;;;15.79;100.00
37848;BME280;23688;33.130;-117.188;2023-05-22T11:27:52;99341.38;;;15.81;100.00
37848;BME280;23688;33.130;-117.188;2023-05-22T11:30:19;99330.03;;;15.81;100.00
37848;BME280;23688;33.130;-117.188;2023-05-22T11:32:46;99344.97;;;15.87;100.00
37848;BME280;23688;33.130;-117.188;2023-05-22T11:35:19;99337.16;;;15.88;100.00
37848;BME280;23688;33.130;-117.188;2023-05-22T11:37:47;99337.19;;;15.91;100.00
37848;BME280;23688;33.130;-117.188;2023-05-22T11:40:19;99326.72;;;15.91;100.00
37848;BME280;23688;33.130;-117.188;2023-05-22T11:42:54;99338.22;;;16.01;100.00
37848;BME280;23688;33.130;-117.188;2023-05-22T11:45:21;99326.00;;;16.00;100.00
37848;BME280;23688;33.130;-117.188;2023-05-22T11:47:48;99319.03;;;16.00;100.00
37848;BME280;23688;33.130;-117.188;2023-05-22T11:50:15;99317.28;;;16.01;100.00
37848;BME280;23688;33.130;-117.188;2023-05-22T11:52:42;99318.06;;;15.95;100.00
37848;BME280;23688;33.130;-117.188;2023-05-22T11:55:09;99314.50;;;15.90;100.00
37848;BME280;23688;33.130;-117.188;2023-05-22T11:57:36;99308.28;;;15.83;100.00
37848;BME280;23688;33.130;-117.188;2023-05-22T12:00:06;99317.91;;;15.86;100.00
37848;BME280;23688;33.130;-117.188;2023-05-22T12:02:33;99312.75;;;15.91;100.00
37848;BME280;23688;33.130;-117.188;2023-05-22T12:05:00;99317.19;;;15.95;100.00
37848;BME280;23688;33.130;-117.188;2023-05-22T12:07:27;99311.06;;;15.93;100.00
37848;BME280;23688;33.130;-117.188;2023-05-22T12:09:56;99288.03;;;15.73;100.00
37848;BME280;23688;33.130;-117.188;2023-05-22T12:12:23;99308.16;;;15.77;100.00
37848;BME280;23688;33.130;-117.188;2023-05-22T12:14:50;99303.84;;;15.81;100.00
37848;BME280;23688;33.130;-117.188;2023-05-22T12:17:17;99310.84;;;15.82;100.00
37848;BME280;23688;33.130;-117.188;2023-05-22T12:19:44;99300.38;;;15.80;100.00
37848;BME280;23688;33.130;-117.188;2023-05-22T12:22:12;99296.88;;;15.81;100.00
37848;BME280;23688;33.130;-117.188;2023-05-22T12:24:43;99296.88;;;15.81;100.00
37848;BME280;23688;33.130;-117.188;2023-05-22T12:27:13;99297.88;;;15.90;100.00
37848;BME280;23688;33.130;-117.188;2023-05-22T12:29:40;99269.78;;;15.78;100.00
37848;BME280;23688;33.130;-117.188;2023-05-22T12:32:11;99298.75;;;15.89;100.00
37848;BME280;23688;33.130;-117.188;2023-05-22T12:34:45;99293.38;;;15.81;100.00
37848;BME280;23688;33.130;-117.188;2023-05-22T12:37:22;99300.50;;;15.88;100.00
37848;BME280;23688;33.130;-117.188;2023-05-22T12:39:54;99302.19;;;15.86;100.00
37848;BME280;23688;33.130;-117.188;2023-05-22T12:42:20;99303.13;;;15.90;100.00
37848;BME280;23688;33.130;-117.188;2023-05-22T12:44:47;99301.41;;;15.92;100.00
37848;BME280;23688;33.130;-117.188;2023-05-22T12:47:13;99303.19;;;15.93;100.00
37848;BME280;23688;33.130;-117.188;2023-05-22T12:49:39;99307.59;;;15.97;100.00
37848;BME280;23688;33.130;-117.188;2023-05-22T12:52:05;99298.03;;;15.97;100.00